Time;durP1;ratioP1;P1;durP2;ratioP2;P2;SDS_P1;SDS_P2;PMS_P1;PMS_P2;Temp;Humidity;BMP_temperature;BMP_pressure;BME280_temperature;BME280_humidity;BME280_pressure;Samples;Min_cycle;Max_cycle;Signal;HPM_P1;HPM_P2
2023/06/08 00:01:15;;;;;;;9.50;8.70;;;;;;;;;;5053802;28;20448;-71
2023/06/08 00:03:43;;;;;;;9.07;8.38;;;;;;;;;;5058074;28;20440;-71
2023/06/08 00:06:13;;;;;;;9.75;8.95;;;;;;;;;;5064871;28;20663;-71
2023/06/08 00:08:41;;;;;;;9.88;9.00;;;;;;;;;;5063427;28;20454;-71
2023/06/08 00:11:10;;;;;;;9.13;8.32;;;;;;;;;;5062944;28;20434;-70
2023/06/08 00:13:37;;;;;;;8.93;8.23;;;;;;;;;;5066729;28;20529;-71
2023/06/08 00:16:05;;;;;;;8.70;8.00;;;;;;;;;;5063777;28;20432;-70
2023/06/08 00:18:32;;;;;;;10.60;9.60;;;;;;;;;;5054584;28;20952;-69
2023/06/08 00:21:00;;;;;;;9.70;8.90;;;;;;;;;;5063820;28;20497;-69
2023/06/08 00:23:28;;;;;;;9.80;9.00;;;;;;;;;;5062976;28;20542;-70
2023/06/08 00:25:56;;;;;;;9.82;8.93;;;;;;;;;;5056391;28;20431;-71
2023/06/08 00:28:23;;;;;;;9.90;9.10;;;;;;;;;;5050504;28;20415;-70
2023/06/08 00:30:50;;;;;;;9.85;9.05;;;;;;;;;;5060786;28;20500;-69
2023/06/08 00:33:18;;;;;;;10.30;9.30;;;;;;;;;;5063154;28;20513;-70
2023/06/08 00:35:45;;;;;;;10.05;9.05;;;;;;;;;;5060629;28;20435;-69
2023/06/08 00:38:12;;;;;;;9.80;8.90;;;;;;;;;;5065331;28;20453;-70
2023/06/08 00:40:39;;;;;;;10.27;9.48;;;;;;;;;;5056515;28;20517;-70
2023/06/08 00:43:07;;;;;;;10.02;9.23;;;;;;;;;;5069425;28;20503;-69
2023/06/08 00:45:34;;;;;;;9.90;9.00;;;;;;;;;;5055536;28;20873;-69
2023/06/08 00:48:02;;;;;;;10.68;9.80;;;;;;;;;;5067364;28;20600;-69
2023/06/08 00:50:31;;;;;;;9.50;8.80;;;;;;;;;;5061850;28;20509;-70
2023/06/08 00:52:58;;;;;;;9.80;9.10;;;;;;;;;;5067188;28;20441;-69
2023/06/08 00:55:29;;;;;;;10.15;9.35;;;;;;;;;;5063248;28;20433;-71
2023/06/08 00:57:56;;;;;;;9.90;9.10;;;;;;;;;;5051823;28;20496;-71
2023/06/08 01:00:27;;;;;;;9.90;9.00;;;;;;;;;;5064696;28;20510;-71
2023/06/08 01:02:55;;;;;;;8.60;8.00;;;;;;;;;;5059405;28;20521;-71
2023/06/08 01:05:22;;;;;;;9.77;8.98;;;;;;;;;;5060509;28;20721;-71
2023/06/08 01:07:53;;;;;;;10.50;9.60;;;;;;;;;;5059218;28;20423;-71
2023/06/08 01:10:22;;;;;;;9.45;8.65;;;;;;;;;;5048551;28;20455;-71
2023/06/08 01:12:53;;;;;;;10.07;9.27;;;;;;;;;;5060777;28;20845;-69
2023/06/08 01:15:25;;;;;;;9.90;9.10;;;;;;;;;;5058311;28;20442;-69
2023/06/08 01:17:57;;;;;;;9.73;8.97;;;;;;;;;;5065203;28;20423;-69
2023/06/08 01:20:32;;;;;;;10.18;9.27;;;;;;;;;;5058336;28;20435;-69
2023/06/08 01:23:00;;;;;;;9.30;8.50;;;;;;;;;;5061655;28;20470;-71
2023/06/08 01:25:30;;;;;;;10.05;9.15;;;;;;;;;;5063737;28;20431;-71
2023/06/08 01:28:12;;;;;;;10.30;9.50;;;;;;;;;;5058029;28;20482;-71
2023/06/08 01:30:39;;;;;;;10.00;9.20;;;;;;;;;;5058301;28;20423;-70
2023/06/08 01:33:07;;;;;;;9.68;8.98;;;;;;;;;;5071312;28;20436;-69
2023/06/08 01:35:34;;;;;;;9.90;9.10;;;;;;;;;;5058282;28;20421;-69
2023/06/08 01:38:05;;;;;;;10.65;9.75;;;;;;;;;;5068170;28;20442;-71
2023/06/08 01:40:36;;;;;;;10.32;9.32;;;;;;;;;;5058596;28;20511;-71
2023/06/08 01:43:04;;;;;;;11.07;10.18;;;;;;;;;;5060684;28;20431;-70
2023/06/08 01:45:34;;;;;;;10.43;9.52;;;;;;;;;;5067232;28;20775;-71
2023/06/08 01:48:03;;;;;;;10.20;9.40;;;;;;;;;;5059219;28;20445;-71
2023/06/08 01:50:31;;;;;;;10.40;9.50;;;;;;;;;;5061280;28;20451;-71
2023/06/08 01:52:58;;;;;;;10.60;9.80;;;;;;;;;;5071148;28;20431;-71
2023/06/08 01:55:27;;;;;;;9.65;8.95;;;;;;;;;;5066815;28;20455;-71
2023/06/08 01:57:56;;;;;;;10.40;9.60;;;;;;;;;;5065960;28;20438;-71
2023/06/08 02:00:24;;;;;;;9.97;9.17;;;;;;;;;;5062289;28;20518;-71
2023/06/08 02:02:51;;;;;;;9.95;9.05;;;;;;;;;;5054028;28;20410;-71
2023/06/08 02:05:18;;;;;;;9.77;8.98;;;;;;;;;;5063562;28;20408;-71
2023/06/08 02:07:45;;;;;;;10.40;9.60;;;;;;;;;;5063700;28;20437;-71
2023/06/08 02:10:13;;;;;;;9.80;9.10;;;;;;;;;;5057639;28;20458;-71
2023/06/08 02:12:40;;;;;;;10.30;9.40;;;;;;;;;;5050138;28;20912;-71
2023/06/08 02:15:09;;;;;;;10.30;9.33;;;;;;;;;;5064561;28;20427;-71
2023/06/08 02:17:36;;;;;;;10.82;9.82;;;;;;;;;;5059722;28;21014;-71
2023/06/08 02:20:06;;;;;;;10.30;9.40;;;;;;;;;;5064287;28;20419;-71
2023/06/08 02:22:33;;;;;;;10.57;9.77;;;;;;;;;;5063101;28;20525;-71
2023/06/08 02:25:00;;;;;;;10.30;9.50;;;;;;;;;;5067196;28;20437;-71
2023/06/08 02:27:28;;;;;;;10.50;9.60;;;;;;;;;;5064492;28;20442;-71
2023/06/08 02:29:55;;;;;;;11.13;10.23;;;;;;;;;;5051870;28;20416;-70
2023/06/08 02:32:24;;;;;;;11.48;10.57;;;;;;;;;;5065297;28;20428;-71
2023/06/08 02:34:55;;;;;;;11.10;10.20;;;;;;;;;;5067101;28;20461;-71
2023/06/08 02:37:23;;;;;;;10.70;9.90;;;;;;;;;;5072146;28;20854;-71
2023/06/08 02:39:50;;;;;;;10.82;10.02;;;;;;;;;;5063505;28;20499;-70
2023/06/08 02:42:18;;;;;;;11.50;10.40;;;;;;;;;;5061132;28;20432;-71
2023/06/08 02:44:45;;;;;;;11.30;10.40;;;;;;;;;;5053227;28;20823;-71
2023/06/08 02:47:12;;;;;;;12.60;11.60;;;;;;;;;;5057849;28;20879;-71
2023/06/08 02:49:40;;;;;;;11.57;10.68;;;;;;;;;;5055402;28;20919;-71
2023/06/08 02:52:08;;;;;;;11.77;10.88;;;;;;;;;;5058594;28;20447;-71
2023/06/08 02:54:36;;;;;;;11.90;11.05;;;;;;;;;;5064905;28;20457;-71
2023/06/08 02:57:03;;;;;;;11.35;10.45;;;;;;;;;;5057186;28;20435;-71
2023/06/08 02:59:31;;;;;;;11.63;10.63;;;;;;;;;;5054668;28;20844;-70
2023/06/08 03:01:58;;;;;;;12.27;11.27;;;;;;;;;;5065262;28;21822;-71
2023/06/08 03:04:26;;;;;;;12.03;10.93;;;;;;;;;;5064658;28;20420;-71
2023/06/08 03:06:55;;;;;;;11.52;10.73;;;;;;;;;;5062602;28;20438;-71
2023/06/08 03:09:22;;;;;;;13.60;12.40;;;;;;;;;;5065608;28;20444;-71
2023/06/08 03:11:49;;;;;;;14.10;13.00;;;;;;;;;;5064020;28;20922;-71
2023/06/08 03:14:18;;;;;;;14.43;13.25;;;;;;;;;;5064719;28;20936;-71
2023/06/08 03:16:45;;;;;;;14.25;13.15;;;;;;;;;;5061413;28;20506;-71
2023/06/08 03:19:12;;;;;;;12.77;11.70;;;;;;;;;;5053143;28;20505;-71
2023/06/08 03:21:41;;;;;;;13.00;11.90;;;;;;;;;;5057871;28;20429;-71
2023/06/08 03:24:11;;;;;;;12.98;11.98;;;;;;;;;;5054070;28;20458;-71
2023/06/08 03:26:38;;;;;;;13.95;12.90;;;;;;;;;;5061432;28;20436;-71
2023/06/08 03:29:05;;;;;;;13.30;12.18;;;;;;;;;;5054334;28;20548;-71
2023/06/08 03:31:37;;;;;;;12.73;11.55;;;;;;;;;;5056491;28;20519;-71
2023/06/08 03:34:05;;;;;;;13.27;12.18;;;;;;;;;;5063795;28;20443;-71
2023/06/08 03:36:35;;;;;;;12.98;11.98;;;;;;;;;;5060956;28;20459;-69
2023/06/08 03:39:02;;;;;;;14.43;13.32;;;;;;;;;;5061784;28;20459;-71
2023/06/08 03:41:30;;;;;;;13.73;12.60;;;;;;;;;;5059931;28;20458;-70
2023/06/08 03:43:58;;;;;;;13.60;12.50;;;;;;;;;;5063476;28;20423;-70
2023/06/08 03:46:25;;;;;;;14.07;12.97;;;;;;;;;;5061903;28;20902;-71
2023/06/08 03:48:52;;;;;;;13.65;12.65;;;;;;;;;;5061535;28;20930;-71
2023/06/08 03:51:21;;;;;;;14.30;13.20;;;;;;;;;;5064341;28;20939;-71
2023/06/08 03:53:49;;;;;;;13.80;12.70;;;;;;;;;;5069011;28;20935;-71
2023/06/08 03:56:17;;;;;;;13.85;12.65;;;;;;;;;;5049770;28;20770;-71
2023/06/08 03:58:46;;;;;;;13.70;12.70;;;;;;;;;;5064267;28;20432;-70
2023/06/08 04:01:13;;;;;;;14.13;13.02;;;;;;;;;;5052346;28;20436;-70
2023/06/08 04:03:40;;;;;;;14.00;12.73;;;;;;;;;;5066230;28;20581;-71
2023/06/08 04:06:08;;;;;;;14.27;13.18;;;;;;;;;;5054153;28;20896;-70
2023/06/08 04:08:35;;;;;;;17.50;16.00;;;;;;;;;;5059383;28;20562;-71
2023/06/08 04:11:02;;;;;;;14.50;13.40;;;;;;;;;;5055680;28;20522;-71
2023/06/08 04:13:30;;;;;;;14.43;13.32;;;;;;;;;;5056152;28;20804;-71
2023/06/08 04:15:59;;;;;;;14.20;13.10;;;;;;;;;;5054920;28;20502;-71
2023/06/08 04:18:26;;;;;;;14.00;12.80;;;;;;;;;;5051686;28;20412;-71
2023/06/08 04:20:53;;;;;;;14.13;13.02;;;;;;;;;;5058354;28;20444;-71
2023/06/08 04:23:20;;;;;;;14.60;13.30;;;;;;;;;;5060110;28;20459;-71
2023/06/08 04:25:47;;;;;;;14.82;13.65;;;;;;;;;;5055012;28;20431;-71
2023/06/08 04:28:14;;;;;;;14.60;13.60;;;;;;;;;;5084733;22;20435;-76
2023/06/08 04:30:41;;;;;;;15.35;13.90;;;;;;;;;;5056392;28;20427;-76
2023/06/08 04:33:09;;;;;;;14.10;13.10;;;;;;;;;;5061430;28;20462;-77
2023/06/08 04:35:37;;;;;;;14.00;13.00;;;;;;;;;;5059687;28;20463;-75
2023/06/08 04:38:04;;;;;;;13.80;12.70;;;;;;;;;;5059168;28;20476;-78
2023/06/08 04:40:33;;;;;;;13.77;12.70;;;;;;;;;;5060722;28;20413;-77
2023/06/08 04:43:00;;;;;;;14.05;12.93;;;;;;;;;;5052068;28;20444;-76
2023/06/08 04:45:27;;;;;;;13.68;12.77;;;;;;;;;;5046842;28;20732;-77
2023/06/08 04:47:57;;;;;;;13.45;12.45;;;;;;;;;;5049029;28;20424;-75
2023/06/08 04:50:27;;;;;;;13.68;12.68;;;;;;;;;;5046623;28;20444;-75
2023/06/08 04:52:55;;;;;;;13.60;12.50;;;;;;;;;;5045585;28;20448;-76
2023/06/08 04:55:23;;;;;;;13.40;12.30;;;;;;;;;;5045134;28;20444;-76
2023/06/08 04:57:50;;;;;;;13.25;12.30;;;;;;;;;;5036641;28;20526;-77
2023/06/08 05:00:18;;;;;;;13.83;12.60;;;;;;;;;;5046101;28;20823;-77
2023/06/08 05:02:45;;;;;;;14.43;13.23;;;;;;;;;;5046541;28;20417;-77
2023/06/08 05:05:13;;;;;;;15.30;14.00;;;;;;;;;;5048238;28;20416;-76
2023/06/08 05:07:44;;;;;;;15.88;14.68;;;;;;;;;;5047434;28;20440;-77
2023/06/08 05:10:11;;;;;;;14.50;13.30;;;;;;;;;;5042498;28;20556;-76
2023/06/08 05:12:38;;;;;;;15.32;14.13;;;;;;;;;;5051239;28;20448;-77
2023/06/08 05:15:06;;;;;;;14.75;13.50;;;;;;;;;;5046508;28;20827;-76
2023/06/08 05:17:33;;;;;;;14.55;13.38;;;;;;;;;;5046520;28;20809;-76
2023/06/08 05:20:00;;;;;;;14.80;13.60;;;;;;;;;;5047391;28;20761;-73
2023/06/08 05:22:28;;;;;;;13.50;12.50;;;;;;;;;;5049671;28;20426;-72
2023/06/08 05:24:56;;;;;;;13.48;12.38;;;;;;;;;;5052244;28;20433;-71
2023/06/08 05:27:23;;;;;;;13.00;11.90;;;;;;;;;;5051071;28;20732;-71
2023/06/08 05:29:50;;;;;;;13.18;12.18;;;;;;;;;;5047926;28;20428;-67
2023/06/08 05:32:17;;;;;;;12.60;11.60;;;;;;;;;;5051205;28;20434;-72
2023/06/08 05:34:44;;;;;;;13.80;12.65;;;;;;;;;;5050459;28;20433;-70
2023/06/08 05:37:11;;;;;;;12.30;11.40;;;;;;;;;;5046316;28;20443;-70
2023/06/08 05:39:39;;;;;;;12.98;11.98;;;;;;;;;;5042921;28;20483;-69
2023/06/08 05:42:07;;;;;;;13.57;12.52;;;;;;;;;;5055847;28;20409;-71
2023/06/08 05:44:34;;;;;;;12.70;11.80;;;;;;;;;;5056315;28;20503;-71
2023/06/08 05:47:02;;;;;;;13.02;12.02;;;;;;;;;;5050037;28;20440;-71
2023/06/08 05:49:29;;;;;;;12.70;11.70;;;;;;;;;;5034163;28;20445;-69
2023/06/08 05:51:56;;;;;;;12.30;11.30;;;;;;;;;;5046491;28;20862;-71
2023/06/08 05:54:23;;;;;;;10.73;9.93;;;;;;;;;;5049872;28;20433;-70
2023/06/08 05:56:51;;;;;;;10.68;9.88;;;;;;;;;;5046512;28;20936;-70
2023/06/08 05:59:19;;;;;;;10.80;9.90;;;;;;;;;;5043243;28;20484;-75
2023/06/08 06:01:47;;;;;;;11.48;10.68;;;;;;;;;;5043991;28;20925;-70
2023/06/08 06:04:14;;;;;;;11.23;10.18;;;;;;;;;;5051042;28;20433;-71
2023/06/08 06:06:41;;;;;;;10.88;10.07;;;;;;;;;;5047274;28;20433;-72
2023/06/08 06:09:11;;;;;;;9.18;8.48;;;;;;;;;;5041570;28;20438;-71
2023/06/08 06:11:38;;;;;;;10.98;10.18;;;;;;;;;;5048306;28;20492;-70
2023/06/08 06:14:05;;;;;;;8.60;8.10;;;;;;;;;;5049875;28;20437;-71
2023/06/08 06:16:33;;;;;;;10.88;9.73;;;;;;;;;;5049639;28;20433;-70
2023/06/08 06:19:00;;;;;;;8.93;8.23;;;;;;;;;;5048525;28;20437;-70
2023/06/08 06:21:27;;;;;;;9.20;8.50;;;;;;;;;;5050060;28;20433;-70
2023/06/08 06:23:54;;;;;;;9.05;8.25;;;;;;;;;;5058052;28;20417;-71
2023/06/08 06:26:22;;;;;;;8.63;7.93;;;;;;;;;;5054101;28;20491;-72
2023/06/08 06:28:49;;;;;;;8.60;8.00;;;;;;;;;;5041744;28;20444;-71
2023/06/08 06:31:16;;;;;;;8.80;8.00;;;;;;;;;;5048335;28;20429;-71
2023/06/08 06:33:44;;;;;;;8.00;7.40;;;;;;;;;;5044903;28;20436;-71
2023/06/08 06:36:11;;;;;;;8.40;7.70;;;;;;;;;;5047407;28;20429;-70
2023/06/08 06:38:38;;;;;;;7.72;7.13;;;;;;;;;;5043743;28;20428;-69
2023/06/08 06:41:05;;;;;;;7.70;7.10;;;;;;;;;;5051128;28;20452;-72
2023/06/08 06:43:32;;;;;;;8.00;7.40;;;;;;;;;;5049621;28;20429;-70
2023/06/08 06:45:59;;;;;;;7.15;6.65;;;;;;;;;;5043419;28;20460;-67
2023/06/08 06:48:26;;;;;;;7.43;6.93;;;;;;;;;;5053484;28;20436;-71
2023/06/08 06:50:55;;;;;;;7.28;6.78;;;;;;;;;;5041547;28;20435;-72
2023/06/08 06:53:22;;;;;;;7.97;7.32;;;;;;;;;;5049020;28;20440;-72
2023/06/08 06:55:49;;;;;;;7.20;6.50;;;;;;;;;;5050595;28;20456;-72
2023/06/08 06:58:16;;;;;;;7.30;6.80;;;;;;;;;;5046847;28;20511;-71
2023/06/08 07:00:44;;;;;;;6.93;6.43;;;;;;;;;;5051405;28;20508;-70
2023/06/08 07:03:11;;;;;;;8.80;8.10;;;;;;;;;;5048635;28;20483;-72
2023/06/08 07:05:38;;;;;;;8.20;6.90;;;;;;;;;;5045412;28;20439;-70
2023/06/08 07:08:07;;;;;;;7.40;6.90;;;;;;;;;;5050520;28;20413;-69
2023/06/08 07:10:34;;;;;;;7.30;6.70;;;;;;;;;;5066751;28;20966;-71
2023/06/08 07:13:01;;;;;;;7.07;6.40;;;;;;;;;;5074075;28;20444;-69
2023/06/08 07:15:28;;;;;;;7.10;6.40;;;;;;;;;;5057380;28;20467;-71
2023/06/08 07:17:55;;;;;;;6.93;6.32;;;;;;;;;;5050748;28;20918;-72
2023/06/08 07:20:22;;;;;;;7.40;6.85;;;;;;;;;;5046097;28;20528;-70
2023/06/08 07:22:49;;;;;;;6.93;6.33;;;;;;;;;;5049907;28;20437;-70
2023/06/08 07:25:17;;;;;;;7.10;6.60;;;;;;;;;;5057178;28;20416;-72
2023/06/08 07:27:45;;;;;;;6.90;6.30;;;;;;;;;;5044456;28;20442;-71
2023/06/08 07:30:13;;;;;;;6.63;6.13;;;;;;;;;;5047963;28;20440;-72
2023/06/08 07:32:43;;;;;;;6.75;6.25;;;;;;;;;;5041117;28;20436;-69
2023/06/08 07:35:10;;;;;;;6.80;6.30;;;;;;;;;;5052795;28;20453;-70
2023/06/08 07:37:37;;;;;;;6.90;6.20;;;;;;;;;;5039121;28;20895;-71
2023/06/08 07:40:06;;;;;;;6.20;5.80;;;;;;;;;;5049659;28;20413;-70
2023/06/08 07:42:35;;;;;;;7.40;6.80;;;;;;;;;;5045278;28;20436;-71
2023/06/08 07:45:02;;;;;;;6.50;6.10;;;;;;;;;;5040955;28;20417;-71
2023/06/08 07:47:29;;;;;;;6.82;6.32;;;;;;;;;;5048970;28;20434;-72
2023/06/08 07:49:56;;;;;;;6.30;5.90;;;;;;;;;;5054340;28;20974;-72
2023/06/08 07:52:23;;;;;;;7.30;6.70;;;;;;;;;;5048097;28;20417;-72
2023/06/08 07:54:50;;;;;;;6.53;6.03;;;;;;;;;;5054434;28;20416;-72
2023/06/08 07:57:18;;;;;;;7.00;6.50;;;;;;;;;;5049565;28;20471;-70
2023/06/08 07:59:46;;;;;;;6.07;5.63;;;;;;;;;;5045612;28;20505;-73
2023/06/08 08:02:14;;;;;;;6.07;5.57;;;;;;;;;;5045824;28;20445;-70
2023/06/08 08:04:41;;;;;;;6.30;5.90;;;;;;;;;;5048235;28;20551;-71
2023/06/08 08:07:08;;;;;;;6.00;5.50;;;;;;;;;;5045916;28;20456;-72
2023/06/08 08:09:35;;;;;;;6.13;5.63;;;;;;;;;;5046976;28;20716;-72
2023/06/08 08:12:03;;;;;;;5.63;5.20;;;;;;;;;;5040616;28;20473;-71
2023/06/08 08:14:30;;;;;;;5.68;5.28;;;;;;;;;;5045937;28;20422;-73
2023/06/08 08:16:58;;;;;;;6.05;5.65;;;;;;;;;;5047896;28;20440;-72
2023/06/08 08:19:25;;;;;;;5.60;5.20;;;;;;;;;;5046617;28;20451;-72
2023/06/08 08:21:53;;;;;;;6.05;5.65;;;;;;;;;;5048639;28;20782;-71
2023/06/08 08:24:20;;;;;;;6.28;5.68;;;;;;;;;;5042325;28;20439;-69
2023/06/08 08:26:47;;;;;;;5.90;5.50;;;;;;;;;;5047172;28;20431;-70
2023/06/08 08:29:15;;;;;;;6.20;5.70;;;;;;;;;;5036238;28;20943;-69
2023/06/08 08:31:43;;;;;;;5.97;5.47;;;;;;;;;;5043061;28;20432;-68
2023/06/08 08:34:11;;;;;;;5.80;5.40;;;;;;;;;;5045201;28;20823;-68
2023/06/08 08:36:38;;;;;;;37.40;20.00;;;;;;;;;;5054127;28;20425;-66
2023/06/08 08:39:07;;;;;;;7.55;6.30;;;;;;;;;;5068809;28;20426;-67
2023/06/08 08:41:35;;;;;;;5.80;5.40;;;;;;;;;;5054563;28;20441;-68
2023/06/08 08:44:03;;;;;;;6.00;5.60;;;;;;;;;;5041202;28;20438;-67
2023/06/08 08:46:33;;;;;;;5.30;5.00;;;;;;;;;;5050418;28;20508;-68
2023/06/08 08:49:04;;;;;;;6.10;5.68;;;;;;;;;;5042747;28;20429;-67
2023/06/08 08:51:38;;;;;;;5.55;5.05;;;;;;;;;;5049170;28;20424;-68
2023/06/08 08:54:06;;;;;;;5.93;5.43;;;;;;;;;;5037190;28;20509;-68
2023/06/08 08:56:36;;;;;;;5.45;5.05;;;;;;;;;;5033334;28;20461;-69
2023/06/08 08:59:04;;;;;;;5.90;5.50;;;;;;;;;;5035544;28;20435;-69
2023/06/08 09:01:32;;;;;;;6.47;6.07;;;;;;;;;;5044837;28;20442;-68
2023/06/08 09:03:59;;;;;;;5.80;5.40;;;;;;;;;;5049404;28;20843;-69
2023/06/08 09:06:27;;;;;;;5.50;5.20;;;;;;;;;;5047404;28;20433;-69
2023/06/08 09:08:56;;;;;;;5.50;5.10;;;;;;;;;;5049515;28;20831;-68
2023/06/08 09:11:23;;;;;;;5.30;4.90;;;;;;;;;;5049076;28;20438;-68
2023/06/08 09:14:06;;;;;;;5.18;4.72;;;;;;;;;;5043561;28;20461;-68
2023/06/08 09:16:42;;;;;;;5.10;4.60;;;;;;;;;;5045935;28;20456;-69
2023/06/08 09:19:09;;;;;;;5.40;5.00;;;;;;;;;;5046657;28;20428;-69
2023/06/08 09:21:36;;;;;;;5.13;4.72;;;;;;;;;;5066737;28;20441;-69
2023/06/08 09:24:06;;;;;;;5.43;5.03;;;;;;;;;;5074003;28;21006;-68
2023/06/08 09:26:33;;;;;;;4.95;4.65;;;;;;;;;;5062785;28;20509;-68
2023/06/08 09:29:02;;;;;;;4.90;4.50;;;;;;;;;;5052648;28;20417;-70
2023/06/08 09:31:31;;;;;;;4.68;4.38;;;;;;;;;;5048409;28;20436;-68
2023/06/08 09:34:08;;;;;;;5.00;4.60;;;;;;;;;;5055608;28;20460;-68
2023/06/08 09:36:36;;;;;;;4.90;4.60;;;;;;;;;;5049583;28;20440;-69
2023/06/08 09:39:07;;;;;;;5.22;4.82;;;;;;;;;;5047414;28;20429;-69
2023/06/08 09:41:36;;;;;;;5.00;4.70;;;;;;;;;;5046162;28;20459;-67
2023/06/08 09:44:04;;;;;;;5.10;4.70;;;;;;;;;;5042079;28;20510;-67
2023/06/08 09:46:35;;;;;;;5.10;4.70;;;;;;;;;;5049133;28;20429;-71
2023/06/08 09:49:03;;;;;;;4.83;4.43;;;;;;;;;;5049823;28;20427;-70
2023/06/08 09:51:32;;;;;;;5.10;4.80;;;;;;;;;;5054962;28;20435;-70
2023/06/08 09:54:01;;;;;;;5.15;4.63;;;;;;;;;;5052452;28;20428;-70
2023/06/08 09:56:30;;;;;;;4.50;4.20;;;;;;;;;;5044744;28;20440;-71
2023/06/08 09:58:58;;;;;;;4.70;4.40;;;;;;;;;;5044661;28;20851;-69
2023/06/08 10:01:28;;;;;;;4.47;4.18;;;;;;;;;;5048761;28;20935;-70
2023/06/08 10:03:58;;;;;;;4.30;4.00;;;;;;;;;;5037067;28;20436;-71
2023/06/08 10:06:26;;;;;;;4.50;4.10;;;;;;;;;;5042392;28;20581;-71
2023/06/08 10:08:55;;;;;;;4.38;4.07;;;;;;;;;;5046120;28;20430;-70
2023/06/08 10:11:22;;;;;;;4.70;4.40;;;;;;;;;;5048282;28;20419;-68
2023/06/08 10:13:51;;;;;;;4.53;4.22;;;;;;;;;;5051895;28;20428;-69
2023/06/08 10:16:18;;;;;;;4.80;4.40;;;;;;;;;;5051294;28;20464;-67
2023/06/08 10:18:46;;;;;;;4.60;4.30;;;;;;;;;;5047638;28;20440;-70
2023/06/08 10:21:13;;;;;;;5.13;4.72;;;;;;;;;;5051447;28;20416;-70
2023/06/08 10:23:40;;;;;;;4.60;4.30;;;;;;;;;;5048996;28;20754;-69
2023/06/08 10:26:09;;;;;;;4.80;4.40;;;;;;;;;;5047538;28;20901;-69
2023/06/08 10:28:36;;;;;;;4.87;4.47;;;;;;;;;;5049323;28;20416;-72
2023/06/08 10:31:18;;;;;;;5.03;4.63;;;;;;;;;;5085337;22;21075;-64
2023/06/08 10:33:46;;;;;;;5.32;4.80;;;;;;;;;;5068493;28;20454;-66
2023/06/08 10:36:13;;;;;;;5.07;4.78;;;;;;;;;;5068064;28;20435;-65
2023/06/08 10:38:55;;;;;;;5.00;4.70;;;;;;;;;;5065753;28;20423;-65
2023/06/08 10:41:37;;;;;;;4.82;4.53;;;;;;;;;;5056148;28;20449;-65
2023/06/08 10:44:04;;;;;;;5.20;4.70;;;;;;;;;;5060274;28;20431;-66
2023/06/08 10:46:44;;;;;;;4.60;4.30;;;;;;;;;;5058410;28;20828;-67
2023/06/08 10:49:12;;;;;;;4.88;4.57;;;;;;;;;;5058907;28;20438;-66
2023/06/08 10:51:43;;;;;;;4.50;4.20;;;;;;;;;;5059064;28;20440;-67
2023/06/08 10:54:21;;;;;;;4.30;4.00;;;;;;;;;;5061517;28;20459;-67
2023/06/08 10:56:52;;;;;;;4.82;4.43;;;;;;;;;;5062048;28;20485;-68
2023/06/08 10:59:19;;;;;;;4.60;4.30;;;;;;;;;;5062304;28;20505;-67
2023/06/08 11:01:47;;;;;;;5.25;4.75;;;;;;;;;;5066705;28;20447;-67
2023/06/08 11:04:18;;;;;;;5.00;4.60;;;;;;;;;;5058953;28;20959;-67
2023/06/08 11:06:45;;;;;;;4.60;4.30;;;;;;;;;;5057365;28;20417;-68
2023/06/08 11:09:13;;;;;;;5.10;4.70;;;;;;;;;;5064484;28;20462;-67
2023/06/08 11:11:50;;;;;;;5.22;4.82;;;;;;;;;;5059851;28;20409;-66
2023/06/08 11:14:20;;;;;;;4.80;4.50;;;;;;;;;;5062433;28;20491;-66
2023/06/08 11:16:49;;;;;;;4.28;3.97;;;;;;;;;;5063355;28;20463;-62
2023/06/08 11:19:19;;;;;;;4.60;4.20;;;;;;;;;;5054526;28;20428;-66
2023/06/08 11:21:46;;;;;;;4.43;4.03;;;;;;;;;;5060013;28;20957;-66
2023/06/08 11:24:14;;;;;;;4.55;4.15;;;;;;;;;;5065355;28;20497;-68
2023/06/08 11:26:41;;;;;;;4.70;4.30;;;;;;;;;;5059969;28;20455;-67
2023/06/08 11:29:08;;;;;;;4.45;4.15;;;;;;;;;;5066194;28;20415;-66
2023/06/08 11:31:40;;;;;;;4.40;4.10;;;;;;;;;;5063134;28;20488;-63
2023/06/08 11:34:08;;;;;;;4.80;4.50;;;;;;;;;;5064741;28;20427;-67
2023/06/08 11:36:39;;;;;;;4.50;4.20;;;;;;;;;;5060315;28;20944;-66
2023/06/08 11:39:07;;;;;;;5.10;4.70;;;;;;;;;;5060820;28;20913;-66
2023/06/08 11:41:34;;;;;;;4.50;4.10;;;;;;;;;;5059378;28;20422;-66
2023/06/08 11:44:01;;;;;;;4.70;4.40;;;;;;;;;;5059157;28;20428;-67
2023/06/08 11:46:28;;;;;;;4.82;4.50;;;;;;;;;;5062474;28;20937;-65
2023/06/08 11:49:05;;;;;;;4.90;4.50;;;;;;;;;;5063982;28;20901;-69
2023/06/08 11:51:32;;;;;;;4.53;4.22;;;;;;;;;;5053305;28;20452;-64
2023/06/08 11:54:03;;;;;;;4.20;4.00;;;;;;;;;;5058480;28;20464;-65
2023/06/08 11:56:35;;;;;;;4.40;4.10;;;;;;;;;;5063371;28;20435;-66
2023/06/08 11:59:03;;;;;;;4.80;4.40;;;;;;;;;;5058851;28;20428;-65
2023/06/08 12:01:31;;;;;;;4.40;4.10;;;;;;;;;;5063937;28;20415;-64
2023/06/08 12:03:58;;;;;;;4.20;3.90;;;;;;;;;;5055011;28;20427;-65
2023/06/08 12:06:26;;;;;;;4.80;4.50;;;;;;;;;;5057425;28;20455;-65
2023/06/08 12:08:54;;;;;;;4.45;4.05;;;;;;;;;;5062092;28;20466;-65
2023/06/08 12:11:23;;;;;;;4.38;4.07;;;;;;;;;;5061108;28;20973;-65
2023/06/08 12:13:53;;;;;;;4.40;4.00;;;;;;;;;;5059027;28;20427;-68
2023/06/08 12:16:20;;;;;;;4.20;3.90;;;;;;;;;;5059039;28;20863;-65
2023/06/08 12:18:47;;;;;;;3.92;3.72;;;;;;;;;;5063522;28;20435;-67
2023/06/08 12:21:18;;;;;;;3.92;3.72;;;;;;;;;;5059134;28;20436;-67
2023/06/08 12:23:45;;;;;;;4.70;4.40;;;;;;;;;;5058919;28;20435;-67
2023/06/08 12:26:12;;;;;;;4.50;4.20;;;;;;;;;;5063331;28;20412;-66
2023/06/08 12:28:41;;;;;;;4.60;4.20;;;;;;;;;;5059057;28;20438;-66
2023/06/08 12:31:08;;;;;;;4.03;3.80;;;;;;;;;;5056129;28;20453;-71
2023/06/08 12:33:36;;;;;;;4.10;3.80;;;;;;;;;;5051082;28;20943;-70
2023/06/08 12:36:03;;;;;;;4.25;3.95;;;;;;;;;;5056992;28;20914;-71
2023/06/08 12:38:30;;;;;;;3.80;3.60;;;;;;;;;;5051377;28;20523;-70
2023/06/08 12:40:57;;;;;;;3.80;3.60;;;;;;;;;;5055825;28;20428;-69
2023/06/08 12:43:25;;;;;;;3.90;3.60;;;;;;;;;;5054577;28;20838;-71
2023/06/08 12:45:54;;;;;;;3.70;3.40;;;;;;;;;;5057534;28;20438;-69
2023/06/08 12:48:22;;;;;;;4.10;3.80;;;;;;;;;;5062094;28;20439;-70
2023/06/08 12:50:49;;;;;;;4.00;3.70;;;;;;;;;;5063084;28;20928;-72
2023/06/08 12:53:16;;;;;;;4.00;3.70;;;;;;;;;;5066275;28;20416;-72
2023/06/08 12:55:43;;;;;;;4.25;3.85;;;;;;;;;;5053044;28;20436;-70
2023/06/08 12:58:11;;;;;;;4.13;3.72;;;;;;;;;;5051671;28;20413;-70
2023/06/08 13:00:38;;;;;;;3.50;3.30;;;;;;;;;;5059152;28;20522;-71
2023/06/08 13:03:07;;;;;;;3.50;3.30;;;;;;;;;;5061763;28;20442;-71
2023/06/08 13:05:34;;;;;;;3.23;3.03;;;;;;;;;;5054285;28;20522;-71
2023/06/08 13:08:06;;;;;;;3.53;3.30;;;;;;;;;;5063096;28;20481;-70
2023/06/08 13:10:33;;;;;;;3.42;3.22;;;;;;;;;;5064514;28;20530;-71
2023/06/08 13:13:02;;;;;;;3.90;3.60;;;;;;;;;;5067529;28;20430;-71
2023/06/08 13:15:29;;;;;;;4.40;4.00;;;;;;;;;;5055491;28;20525;-70
2023/06/08 13:17:57;;;;;;;4.00;3.80;;;;;;;;;;5055249;28;20508;-70
2023/06/08 13:20:26;;;;;;;4.90;4.40;;;;;;;;;;5058497;28;21104;-71
2023/06/08 13:22:54;;;;;;;5.25;4.82;;;;;;;;;;5065587;28;20427;-70
2023/06/08 13:25:21;;;;;;;5.60;5.10;;;;;;;;;;5069596;28;20430;-70
2023/06/08 13:27:48;;;;;;;11.93;8.63;;;;;;;;;;5069067;28;20417;-69
2023/06/08 13:30:16;;;;;;;12.38;10.45;;;;;;;;;;5065118;28;20696;-71
2023/06/08 13:32:43;;;;;;;12.98;11.70;;;;;;;;;;5063442;28;20427;-71
2023/06/08 13:35:10;;;;;;;13.50;12.30;;;;;;;;;;5067098;28;20821;-71
2023/06/08 13:37:38;;;;;;;13.45;12.45;;;;;;;;;;5065365;28;20437;-71
2023/06/08 13:40:06;;;;;;;15.00;13.80;;;;;;;;;;5066895;28;20435;-70
2023/06/08 13:42:33;;;;;;;12.98;12.07;;;;;;;;;;5065746;28;20435;-70
2023/06/08 13:45:01;;;;;;;15.30;14.07;;;;;;;;;;5061428;28;20429;-71
2023/06/08 13:47:28;;;;;;;15.40;14.30;;;;;;;;;;5066712;28;20952;-70
2023/06/08 13:49:55;;;;;;;13.95;12.95;;;;;;;;;;5069156;28;20427;-70
2023/06/08 13:52:22;;;;;;;14.10;13.05;;;;;;;;;;5057196;28;20837;-70
2023/06/08 13:54:50;;;;;;;14.85;13.65;;;;;;;;;;5061785;28;20500;-70
2023/06/08 13:57:17;;;;;;;13.98;12.75;;;;;;;;;;5068171;28;20427;-68
2023/06/08 13:59:44;;;;;;;14.68;13.48;;;;;;;;;;5058657;28;21060;-69
2023/06/08 14:02:11;;;;;;;14.90;13.60;;;;;;;;;;5065944;28;20562;-69
2023/06/08 14:04:39;;;;;;;14.20;13.00;;;;;;;;;;5066627;28;20408;-69
2023/06/08 14:07:06;;;;;;;14.43;13.32;;;;;;;;;;5059938;28;20671;-69
2023/06/08 14:09:33;;;;;;;14.80;13.63;;;;;;;;;;5060812;28;20734;-69
2023/06/08 14:12:02;;;;;;;14.98;13.88;;;;;;;;;;5064091;28;20423;-69
2023/06/08 14:14:29;;;;;;;15.45;14.35;;;;;;;;;;5064198;28;20456;-69
2023/06/08 14:16:56;;;;;;;16.30;15.00;;;;;;;;;;5057188;28;20461;-69
2023/06/08 14:19:23;;;;;;;17.80;16.50;;;;;;;;;;5064902;28;20781;-69
2023/06/08 14:21:50;;;;;;;17.90;16.60;;;;;;;;;;5057198;28;20911;-68
2023/06/08 14:24:17;;;;;;;19.42;17.92;;;;;;;;;;5055799;28;20417;-68
2023/06/08 14:26:44;;;;;;;19.73;18.38;;;;;;;;;;5063184;28;20418;-68
2023/06/08 14:29:13;;;;;;;20.48;18.98;;;;;;;;;;5062611;28;20442;-69
2023/06/08 14:31:40;;;;;;;18.88;17.38;;;;;;;;;;5062908;28;20428;-69
2023/06/08 14:34:07;;;;;;;21.20;19.70;;;;;;;;;;5059437;28;20485;-69
2023/06/08 14:36:34;;;;;;;20.65;18.95;;;;;;;;;;5064212;28;20807;-71
2023/06/08 14:39:01;;;;;;;20.17;18.58;;;;;;;;;;5059579;28;20412;-69